Latest Weather Observations for Julia Creek

IDQ60801

Issued at 11:02 pm EST Wednesday 29 March 2017 (issued every 30 minutes, with the page automatically refreshed every 10 minutes)

About weather observations | Map of weather stations | Latest weather observations for QLD | Other Formats
Station Details ID: 029058 Name: JULIA CREEK AIRPORT Lat: -20.67 Lon: 141.72 Height: 122.5 m
Data from the previous 72 hours. | See also: Recent months at Julia Creek
Date/Time
EST
Temp
°C
App
Temp
°C
Dew
Point
°C
Rel
Hum
%
Delta-T
°C
Wind Press
QNH
hPa
Press
MSL
hPa
Rain since
9am
mm
Dir  Spd
km/h
Gust
km/h
Spd
kts
Gust
kts
29/10:30pm 28.1 28.7 12.0 36 9.4 CALM 0 0 0 0 1005.8 1004.9 0.0
29/10:00pm 29.0 29.4 12.4 36 9.8 SW 2 4 1 2 1005.8 1004.9 0.0
29/09:30pm 29.9 29.5 12.3 33 10.4 SW 6 6 3 3 1005.6 1004.7 0.0
29/09:00pm 29.6 28.8 11.6 33 10.5 SW 7 7 4 4 1005.4 1004.6 0.0
29/08:30pm 30.8 30.2 12.2 32 11.0 SSW 7 9 4 5 1004.9 1004.1 0.0
29/08:00pm 31.6 30.5 11.9 30 11.7 SSW 9 11 5 6 1004.6 1003.8 0.0
29/07:30pm 32.9 31.6 12.5 29 12.2 SSW 11 13 6 7 1004.3 1003.5 0.0
29/07:00pm 34.4 33.3 12.1 26 13.4 SSW 9 11 5 6 1003.7 1002.9 0.0
29/06:30pm 36.8 35.8 12.3 23 14.8 SSW 9 15 5 8 1003.2 1002.4 0.0
29/06:00pm 38.5 36.0 12.3 21 16.0 SSW 17 26 9 14 1003.0 1002.2 0.0
29/05:30pm 39.5 37.4 12.4 20 16.6 S 15 24 8 13 1002.9 1002.1 0.0
29/05:00pm 39.8 36.4 12.6 20 16.8 S 22 33 12 18 1002.7 1001.9 0.0
29/04:30pm 39.4 39.4 13.7 21 16.0 SSE 6 19 3 10 1002.6 1001.8 0.0
29/04:00pm 38.7 38.4 14.5 24 15.3 SW 9 32 5 17 1002.7 1001.9 0.0
29/03:30pm 40.2 38.1 15.1 23 16.0 SSW 20 30 11 16 1002.8 1002.0 0.0
29/03:00pm 39.8 39.5 15.4 23 15.6 S 11 20 6 11 1003.0 1002.2 0.0
29/02:30pm 39.8 39.4 16.1 25 15.3 SW 13 24 7 13 1003.1 1002.3 0.0
29/02:00pm 39.4 39.3 16.9 26 14.7 S 13 28 7 15 1003.7 1002.9 0.0
29/01:30pm 39.3 37.6 16.2 25 14.9 SSE 20 33 11 18 1004.1 1003.3 0.0
29/01:00pm 38.4 38.4 17.2 28 13.8 S 13 26 7 14 1004.7 1003.9 0.0
29/12:30pm 37.3 36.8 16.8 29 13.2 SSE 15 28 8 15 1005.2 1004.4 0.0
29/12:00pm 37.5 36.9 17.5 30 13.1 SSE 17 28 9 15 1005.8 1004.9 0.0
29/11:30am 36.5 36.8 17.1 31 12.6 SE 11 24 6 13 1006.5 1005.6 0.0
29/11:00am 35.4 35.7 17.1 33 11.8 SSE 11 20 6 11 1006.8 1005.9 0.0
29/10:30am 34.7 34.6 17.0 35 11.4 SE 13 24 7 13 1007.2 1006.3 0.0
29/10:00am 34.2 33.3 17.8 37 10.7 SE 19 24 10 13 1007.4 1006.5 0.0
29/09:30am 33.2 32.7 17.8 40 10.0 SE 17 24 9 13 1007.5 1006.6 0.0
29/09:00am 32.0 31.7 18.2 43 9.0 SE 17 22 9 12 1007.6 1006.7 0.0
29/08:30am 30.8 30.6 17.5 45 8.5 SE 15 19 8 10 1007.3 1006.4 0.0
29/08:00am 28.7 28.8 16.6 48 7.6 S 11 17 6 9 1006.6 1005.7 0.0
29/07:30am 25.9 26.4 15.6 53 6.3 S 7 9 4 5 1006.3 1005.4 0.0
29/07:00am 22.6 22.1 13.7 57 5.2 S 9 11 5 6 1006.1 1005.2 0.0
29/06:30am 21.9 21.5 13.0 57 5.1 SSW 7 9 4 5 1005.8 1004.9 0.0
29/06:00am 22.6 22.2 13.1 55 5.5 S 7 9 4 5 1005.6 1004.7 0.0
29/05:30am 23.1 22.4 13.3 54 5.7 SSE 9 11 5 6 1005.1 1004.3 0.0
29/05:00am 22.7 21.8 12.6 53 5.8 S 9 11 5 6 1004.9 1004.1 0.0
29/04:30am 23.1 21.8 12.4 51 6.1 S 11 13 6 7 1004.9 1004.1 0.0
29/04:00am 22.4 21.6 11.8 51 6.0 SSW 7 9 4 5 1004.8 1004.0 0.0
29/03:30am 22.6 21.5 12.0 51 6.0 SSW 9 9 5 5 1004.7 1003.9 0.0
29/03:00am 22.9 22.3 11.6 49 6.4 SSW 6 7 3 4 1004.6 1003.8 0.0
29/02:30am 23.2 22.9 11.6 48 6.6 SSW 4 6 2 3 1004.6 1003.8 0.0
29/02:00am 24.6 24.2 12.5 46 7.0 SE 6 7 3 4 1004.6 1003.8 0.0
29/01:30am 24.6 24.0 12.2 46 7.1 SSE 7 7 4 4 1004.7 1003.9 0.0
29/01:00am 25.2 24.6 12.4 45 7.4 SE 7 7 4 4 1005.0 1004.2 0.0
29/12:30am 25.4 24.8 12.3 44 7.6 SE 7 9 4 5 1005.1 1004.3 0.0
29/12:00am 25.9 24.6 12.4 43 7.9 SE 11 11 6 6 1005.0 1004.2 0.0
 
Date/Time
EST
Temp
°C
App
Temp
°C
Dew
Point
°C
Rel
Hum
%
Delta-T
°C
Wind Press
QNH
hPa
Press
MSL
hPa
Rain since
9am
mm
Dir  Spd
km/h
Gust
km/h
Spd
kts
Gust
kts
28/11:30pm 26.7 25.6 12.0 40 8.5 SE 9 11 5 6 1005.2 1004.4 0.0
28/11:00pm 27.8 26.4 12.2 38 9.1 SE 11 13 6 7 1005.3 1004.5 0.0
28/10:30pm 26.8 24.7 11.3 38 8.9 SSE 13 15 7 8 1005.6 1004.7 0.0
28/10:00pm 27.7 26.4 11.3 36 9.4 SSE 9 11 5 6 1005.3 1004.5 0.0
28/09:30pm 28.7 27.3 10.8 33 10.2 SE 9 11 5 6 1005.0 1004.2 0.0
28/09:00pm 31.3 29.6 11.1 29 11.8 SE 11 15 6 8 1004.7 1003.9 0.0
28/08:30pm 32.6 30.1 11.2 27 12.5 SE 15 20 8 11 1004.6 1003.8 0.0
28/08:00pm 33.1 30.8 10.4 25 13.2 SSE 13 15 7 8 1004.1 1003.3 0.0
28/07:30pm 35.0 31.8 10.1 22 14.5 SSE 17 20 9 11 1003.6 1002.8 0.0
28/07:00pm 36.4 32.2 9.8 20 15.6 SSE 22 30 12 16 1003.3 1002.5 0.0
28/06:30pm 37.6 32.3 10.0 19 16.2 SSE 28 37 15 20 1003.1 1002.3 0.0
28/06:00pm 38.5 33.5 10.8 19 16.6 SSE 28 44 15 24 1003.0 1002.2 0.0
28/05:30pm 39.3 33.7 11.4 19 16.8 SSE 32 48 17 26 1003.0 1002.2 0.0
28/05:00pm 39.6 33.8 10.8 18 17.3 SE 32 43 17 23 1003.0 1002.2 0.0
28/04:52pm 39.9 34.2 11.1 18 17.3 SE 32 50 17 27 1003.0 1002.2 0.0
28/04:30pm 40.3 34.2 10.6 17 17.8 SE 33 46 18 25 1003.0 1002.2 0.0
28/04:15pm 40.6 34.5 11.7 18 17.6 SSE 35 56 19 30 1003.1 1002.3 0.0
28/04:00pm 40.7 35.3 10.9 17 18.0 SE 30 43 16 23 1003.1 1002.3 0.0
28/03:30pm 40.9 34.2 11.0 17 18.1 SSE 37 54 20 29 1003.3 1002.5 0.0
28/03:19pm 41.7 36.2 11.7 17 18.3 SSE 32 50 17 27 1003.2 1002.4 0.0
28/03:00pm 40.5 35.2 12.4 19 17.3 SSE 32 43 17 23 1003.3 1002.5 0.0
28/02:30pm 40.9 34.5 11.9 18 17.7 SSE 37 57 20 31 1003.7 1002.9 0.0
28/02:08pm 40.2 35.8 12.9 20 16.9 SSE 28 48 15 26 1004.1 1003.3 0.0
28/02:00pm 40.4 35.7 13.1 20 17.0 SSE 30 48 16 26 1004.1 1003.3 0.0
28/01:37pm 40.2 36.1 13.7 21 16.6 S 28 50 15 27 1004.5 1003.7 0.0
28/01:30pm 40.6 37.2 14.7 21 16.4 S 26 44 14 24 1004.6 1003.8 0.0
28/01:00pm 39.3 35.7 14.3 22 15.7 SSE 26 44 14 24 1005.7 1004.8 0.0
28/12:30pm 38.4 34.8 14.2 23 15.1 SE 26 39 14 21 1006.4 1005.5 0.0
28/12:00pm 36.7 34.2 14.1 26 14.1 SSE 20 26 11 14 1007.0 1006.1 0.0
28/11:30am 37.9 36.3 15.1 26 14.4 SE 17 28 9 15 1007.5 1006.6 0.0
28/11:00am 37.2 35.6 15.1 27 14.0 SSE 17 26 9 14 1007.9 1007.1 0.0
28/10:30am 36.3 35.2 15.4 28 13.2 SE 15 20 8 11 1008.3 1007.5 0.0
28/10:00am 35.9 35.5 16.1 30 12.6 ESE 13 24 7 13 1008.5 1007.7 0.0
28/09:30am 32.5 32.0 15.9 36 10.4 ESE 13 15 7 8 1008.7 1007.9 0.0
28/09:00am 31.5 31.8 15.9 39 9.8 ESE 9 13 5 7 1008.7 1007.9 0.0
28/08:30am 29.4 29.7 15.1 41 8.8 ESE 7 9 4 5 1008.6 1007.8 0.0
28/08:00am 28.4 28.2 14.6 43 8.4 SE 9 11 5 6 1008.2 1007.4 0.0
28/07:30am 25.0 25.2 14.2 51 6.4 SE 6 7 3 4 1007.9 1007.1 0.0
28/07:00am 23.1 22.9 13.6 55 5.6 SE 7 9 4 5 1007.6 1006.7 0.0
28/06:30am 22.9 22.5 13.1 54 5.7 SE 7 9 4 5 1007.4 1006.5 0.0
28/06:00am 22.8 22.5 13.3 55 5.5 SE 7 9 4 5 1007.0 1006.1 0.0
28/05:30am 23.1 22.7 13.0 53 5.8 ESE 7 7 4 4 1006.9 1006.0 0.0
28/05:00am 24.0 22.9 13.2 50 6.3 ESE 11 13 6 7 1006.8 1005.9 0.0
28/04:30am 24.6 23.4 12.9 48 6.8 ESE 11 15 6 8 1006.5 1005.6 0.0
28/04:00am 24.5 23.4 13.1 49 6.7 ESE 11 13 6 7 1006.5 1005.6 0.0
28/03:30am 23.6 22.7 12.6 50 6.3 SE 9 9 5 5 1006.7 1005.8 0.0
28/03:00am 23.9 23.1 12.8 49 6.4 SSE 9 9 5 5 1006.8 1005.9 0.0
28/02:30am 24.4 23.9 12.7 48 6.8 SSE 7 7 4 4 1006.8 1005.9 0.0
28/02:00am 24.8 24.5 12.7 47 7.0 SE 6 6 3 3 1007.0 1006.1 0.0
28/01:30am 25.4 25.0 12.3 44 7.6 ESE 6 7 3 4 1007.1 1006.2 0.0
28/01:00am 25.7 25.2 12.2 43 7.8 SE 6 7 3 4 1007.4 1006.5 0.0
28/12:30am 26.1 25.5 12.2 42 8.0 SSE 7 9 4 5 1007.5 1006.6 0.0
28/12:00am 26.7 26.0 12.0 40 8.5 SSE 7 9 4 5 1007.5 1006.6 0.0
 
Date/Time
EST
Temp
°C
App
Temp
°C
Dew
Point
°C
Rel
Hum
%
Delta-T
°C
Wind Press
QNH
hPa
Press
MSL
hPa
Rain since
9am
mm
Dir  Spd
km/h
Gust
km/h
Spd
kts
Gust
kts
27/11:30pm 27.1 26.6 12.0 39 8.7 SSE 6 7 3 4 1007.5 1006.6 0.0
27/11:00pm 27.0 25.5 11.9 39 8.7 SSE 11 11 6 6 1007.6 1006.7 0.0
27/10:30pm 27.4 26.5 11.4 37 9.2 SSE 7 9 4 5 1007.7 1006.8 0.0
27/10:00pm 27.9 26.3 11.5 36 9.5 SSE 11 11 6 6 1007.7 1006.8 0.0
27/09:30pm 28.1 26.5 11.6 36 9.5 SSE 11 13 6 7 1007.6 1006.7 0.0
27/09:00pm 28.8 26.9 11.8 35 9.9 SE 13 13 7 7 1007.4 1006.5 0.0
27/08:30pm 29.5 27.9 11.5 33 10.5 SE 11 11 6 6 1007.2 1006.3 0.0
27/08:00pm 30.5 28.7 11.0 30 11.3 SE 11 11 6 6 1007.0 1006.1 0.0
27/07:30pm 32.9 31.1 10.9 26 12.8 SE 11 13 6 7 1006.7 1005.8 0.0
27/07:00pm 35.0 32.4 10.8 23 14.3 SE 15 20 8 11 1006.4 1005.5 0.0
27/06:30pm 36.7 33.4 10.8 21 15.3 SE 19 26 10 14 1006.0 1005.1 0.0
27/06:00pm 38.0 33.6 10.4 19 16.4 SE 24 35 13 19 1005.7 1004.8 0.0
27/05:30pm 38.7 34.8 10.9 19 16.6 SE 22 32 12 17 1005.4 1004.6 0.0
27/05:00pm 39.4 35.8 10.7 18 17.2 SE 20 35 11 19 1005.4 1004.6 0.0
27/04:30pm 39.9 35.7 11.1 18 17.3 ESE 24 35 13 19 1005.2 1004.4 0.0
27/04:00pm 39.9 35.1 10.2 17 17.7 SE 26 35 14 19 1004.9 1004.1 0.0
27/03:30pm 40.2 36.8 11.3 18 17.5 SE 20 37 11 20 1005.2 1004.4 0.0
27/03:00pm 39.7 35.7 11.7 19 17.0 SSE 24 39 13 21 1005.6 1004.7 0.0
27/02:30pm 39.3 36.2 12.2 20 16.5 SE 20 33 11 18 1006.0 1005.1 0.0
27/02:00pm 39.3 37.1 12.2 20 16.6 ESE 15 26 8 14 1006.6 1005.7 0.0
27/01:30pm 39.6 36.2 12.4 20 16.7 SE 22 32 12 17 1007.1 1006.2 0.0
27/01:00pm 38.5 35.6 12.3 21 16.0 SE 19 32 10 17 1007.8 1006.9 0.0
27/12:30pm 37.5 35.3 12.2 22 15.3 SE 15 28 8 15 1008.7 1007.9 0.0
27/12:00pm 37.4 35.2 13.4 24 14.8 SE 17 26 9 14 1009.3 1008.5 0.0
27/11:30am 36.7 35.2 14.1 26 14.0 SE 15 26 8 14 1009.8 1009.0 0.0
27/11:00am 36.0 35.2 15.2 29 13.1 ESE 13 24 7 13 1010.4 1009.6 0.0
27/10:30am 35.1 34.0 15.4 30 12.4 E 15 20 8 11 1010.7 1009.9 0.0
27/10:00am 34.3 33.5 17.1 36 11.1 ESE 17 24 9 13 1011.0 1010.2 0.0
27/09:30am 32.7 32.0 17.3 39 9.9 E 17 24 9 13 1011.2 1010.4 0.0
27/09:00am 31.9 31.4 17.8 43 9.1 E 17 22 9 12 1011.2 1010.4 0.0
27/08:30am 30.7 30.0 17.4 45 8.5 ESE 17 20 9 11 1011.2 1010.4 0.0
27/08:00am 28.5 28.3 16.7 48 7.4 SE 13 19 7 10 1011.0 1010.2 0.0
27/07:30am 25.8 26.2 16.4 56 5.8 ESE 9 13 5 7 1010.6 1009.8 0.0
27/07:00am 23.1 23.5 15.2 61 4.7 ESE 7 9 4 5 1010.2 1009.4 0.0
27/06:30am 23.2 22.7 15.0 60 4.9 ESE 11 15 6 8 1010.0 1009.2 0.0
27/06:00am 23.0 22.6 15.1 61 4.7 ESE 11 15 6 8 1009.6 1008.8 0.0
27/05:30am 23.3 22.8 14.8 59 5.1 ESE 11 13 6 7 1009.4 1008.6 0.0
27/05:00am 23.2 23.0 14.7 58 5.1 SE 9 13 5 7 1009.0 1008.2 0.0
27/04:30am 22.2 22.9 14.6 62 4.5 SSE 4 9 2 5 1008.6 1007.8 0.0
27/04:00am 22.7 24.1 14.3 59 5.0 CALM 0 0 0 0 1008.5 1007.7 0.0
27/03:30am 22.9 23.3 14.7 60 4.9 SE 6 7 3 4 1008.6 1007.8 0.0
27/03:00am 23.5 23.7 14.8 58 5.2 SSE 7 9 4 5 1008.8 1008.0 0.0
27/02:30am 24.4 24.9 15.1 56 5.6 SE 6 7 3 4 1009.0 1008.2 0.0
27/02:00am 24.9 25.3 14.7 53 6.1 E 6 6 3 3 1009.1 1008.3 0.0
27/01:30am 26.6 27.8 15.0 49 7.0 ENE 2 6 1 3 1009.3 1008.5 0.0
27/01:00am 26.9 26.5 14.0 45 7.7 ESE 9 13 5 7 1009.4 1008.6 0.0
27/12:30am 27.0 27.3 14.4 46 7.6 ESE 6 7 3 4 1009.5 1008.7 0.0
27/12:00am 28.0 28.2 14.6 44 8.1 E 7 9 4 5 1009.8 1009.0 0.0
 
Date/Time
EST
Temp
°C
App
Temp
°C
Dew
Point
°C
Rel
Hum
%
Delta-T
°C
Wind Press
QNH
hPa
Press
MSL
hPa
Rain since
9am
mm
Dir  Spd
km/h
Gust
km/h
Spd
kts
Gust
kts
26/11:30pm 28.1 28.0 14.0 42 8.5 E 7 9 4 5 1009.6 1008.8 0.0

Other Formats:

Comma delimited format used in spreadsheet applications
http://www.bom.gov.au/fwo/IDQ60801/IDQ60801.94337.axf

JavaScript Object Notation format (JSON) in row-major order
http://www.bom.gov.au/fwo/IDQ60801/IDQ60801.94337.json